sensor_id;sensor_type;location;lat;lon;timestamp;pressure;altitude;pressure_sealevel;temperature;humidity
74552;BME280;63025;55.472;38.432;2023-04-01T00:00:30;98864.59;;;2.32;81.71
74552;BME280;63025;55.472;38.432;2023-04-01T00:02:56;98864.75;;;2.31;80.95
74552;BME280;63025;55.472;38.432;2023-04-01T00:05:22;98865.22;;;2.34;81.52
74552;BME280;63025;55.472;38.432;2023-04-01T00:07:50;98863.34;;;2.28;81.47
74552;BME280;63025;55.472;38.432;2023-04-01T00:10:16;98871.66;;;2.25;81.84
74552;BME280;63025;55.472;38.432;2023-04-01T00:12:42;98862.59;;;2.19;81.71
74552;BME280;63025;55.472;38.432;2023-04-01T00:15:09;98869.00;;;2.25;81.98
74552;BME280;63025;55.472;38.432;2023-04-01T00:17:36;98870.25;;;2.29;81.42
74552;BME280;63025;55.472;38.432;2023-04-01T00:20:03;98868.00;;;2.26;81.81
74552;BME280;63025;55.472;38.432;2023-04-01T00:22:29;98874.72;;;2.29;82.38
74552;BME280;63025;55.472;38.432;2023-04-01T00:24:55;98871.00;;;2.23;81.65
74552;BME280;63025;55.472;38.432;2023-04-01T00:27:21;98869.19;;;2.24;81.62
74552;BME280;63025;55.472;38.432;2023-04-01T00:29:47;98871.28;;;2.28;81.97
74552;BME280;63025;55.472;38.432;2023-04-01T00:32:14;98878.84;;;2.31;81.18
74552;BME280;63025;55.472;38.432;2023-04-01T00:34:40;98878.94;;;2.38;81.35
74552;BME280;63025;55.472;38.432;2023-04-01T00:37:07;98879.03;;;2.30;80.84
74552;BME280;63025;55.472;38.432;2023-04-01T00:39:34;98891.44;;;2.29;81.61
74552;BME280;63025;55.472;38.432;2023-04-01T00:42:01;98887.81;;;2.30;80.98
74552;BME280;63025;55.472;38.432;2023-04-01T00:44:30;98881.69;;;2.30;81.55
74552;BME280;63025;55.472;38.432;2023-04-01T00:46:56;98884.31;;;2.30;81.62
74552;BME280;63025;55.472;38.432;2023-04-01T00:49:26;98883.31;;;2.31;81.63
74552;BME280;63025;55.472;38.432;2023-04-01T00:51:56;98884.25;;;2.38;82.02
74552;BME280;63025;55.472;38.432;2023-04-01T00:54:24;98883.84;;;2.41;80.56
74552;BME280;63025;55.472;38.432;2023-04-01T00:57:05;98878.31;;;2.36;81.46
74552;BME280;63025;55.472;38.432;2023-04-01T00:59:34;98878.31;;;2.36;81.46
74552;BME280;63025;55.472;38.432;2023-04-01T01:02:07;98880.78;;;2.37;81.15
74552;BME280;63025;55.472;38.432;2023-04-01T01:04:34;98876.91;;;2.40;81.13
74552;BME280;63025;55.472;38.432;2023-04-01T01:13:17;98883.13;;;2.47;80.76
74552;BME280;63025;55.472;38.432;2023-04-01T01:18:42;98870.13;;;2.52;81.21
74552;BME280;63025;55.472;38.432;2023-04-01T01:26:59;98869.47;;;2.50;80.77
74552;BME280;63025;55.472;38.432;2023-04-01T01:37:38;98876.19;;;2.46;80.19
74552;BME280;63025;55.472;38.432;2023-04-01T01:40:09;98879.19;;;2.43;81.32
74552;BME280;63025;55.472;38.432;2023-04-01T01:42:40;98882.22;;;2.40;81.04
74552;BME280;63025;55.472;38.432;2023-04-01T01:45:10;98879.31;;;2.35;80.64
74552;BME280;63025;55.472;38.432;2023-04-01T01:47:40;98880.03;;;2.29;81.26
74552;BME280;63025;55.472;38.432;2023-04-01T01:50:08;98883.59;;;2.36;81.62
74552;BME280;63025;55.472;38.432;2023-04-01T01:52:35;98888.34;;;2.40;81.26
74552;BME280;63025;55.472;38.432;2023-04-01T01:55:01;98887.16;;;2.43;80.81
74552;BME280;63025;55.472;38.432;2023-04-01T01:57:37;98890.72;;;2.35;81.10
74552;BME280;63025;55.472;38.432;2023-04-01T02:00:14;98891.09;;;2.32;81.14
74552;BME280;63025;55.472;38.432;2023-04-01T02:02:44;98887.25;;;2.35;80.70
74552;BME280;63025;55.472;38.432;2023-04-01T02:05:16;98883.31;;;2.31;80.70
74552;BME280;63025;55.472;38.432;2023-04-01T02:07:48;98884.06;;;2.25;81.21
74552;BME280;63025;55.472;38.432;2023-04-01T02:10:17;98880.97;;;2.21;81.81
74552;BME280;63025;55.472;38.432;2023-04-01T02:12:46;98900.34;;;2.21;80.92
74552;BME280;63025;55.472;38.432;2023-04-01T02:15:14;98897.88;;;2.20;81.60
74552;BME280;63025;55.472;38.432;2023-04-01T02:17:45;98899.34;;;2.22;80.75
74552;BME280;63025;55.472;38.432;2023-04-01T02:20:18;98896.97;;;2.28;80.78
74552;BME280;63025;55.472;38.432;2023-04-01T02:22:54;98891.03;;;2.26;81.88
74552;BME280;63025;55.472;38.432;2023-04-01T02:25:27;98891.13;;;2.17;81.73
74552;BME280;63025;55.472;38.432;2023-04-01T02:27:54;98882.06;;;2.12;82.08
74552;BME280;63025;55.472;38.432;2023-04-01T02:30:23;98885.06;;;2.09;81.79
74552;BME280;63025;55.472;38.432;2023-04-01T02:32:49;98887.19;;;2.13;81.35
74552;BME280;63025;55.472;38.432;2023-04-01T02:35:16;98886.84;;;2.16;81.37
74552;BME280;63025;55.472;38.432;2023-04-01T02:37:43;98894.22;;;2.21;81.26
74552;BME280;63025;55.472;38.432;2023-04-01T02:40:12;98897.97;;;2.27;81.84
74552;BME280;63025;55.472;38.432;2023-04-01T02:42:38;98901.63;;;2.26;81.65
74552;BME280;63025;55.472;38.432;2023-04-01T02:45:05;98903.28;;;2.27;82.12
74552;BME280;63025;55.472;38.432;2023-04-01T02:47:31;98900.81;;;2.25;81.38
74552;BME280;63025;55.472;38.432;2023-04-01T02:49:56;98904.00;;;2.20;81.74
74552;BME280;63025;55.472;38.432;2023-04-01T02:52:24;98903.00;;;2.21;81.04
74552;BME280;63025;55.472;38.432;2023-04-01T02:54:51;98907.09;;;2.24;81.48
74552;BME280;63025;55.472;38.432;2023-04-01T02:57:16;98909.56;;;2.26;81.54
74552;BME280;63025;55.472;38.432;2023-04-01T02:59:42;98909.75;;;2.24;81.86
74552;BME280;63025;55.472;38.432;2023-04-01T03:02:08;98911.22;;;2.27;81.18
74552;BME280;63025;55.472;38.432;2023-04-01T03:04:34;98913.69;;;2.28;81.30
74552;BME280;63025;55.472;38.432;2023-04-01T03:07:00;98914.88;;;2.26;81.41
74552;BME280;63025;55.472;38.432;2023-04-01T03:09:26;98919.53;;;2.24;81.91
74552;BME280;63025;55.472;38.432;2023-04-01T03:11:52;98921.09;;;2.18;81.08
74552;BME280;63025;55.472;38.432;2023-04-01T03:14:18;98924.19;;;2.21;81.26
74552;BME280;63025;55.472;38.432;2023-04-01T03:16:44;98926.47;;;2.25;81.98
74552;BME280;63025;55.472;38.432;2023-04-01T03:19:11;98924.84;;;2.24;81.71
74552;BME280;63025;55.472;38.432;2023-04-01T03:21:37;98931.78;;;2.25;81.21
74552;BME280;63025;55.472;38.432;2023-04-01T03:24:02;98933.25;;;2.27;81.39
74552;BME280;63025;55.472;38.432;2023-04-01T03:26:28;98939.09;;;2.37;81.27
74552;BME280;63025;55.472;38.432;2023-04-01T03:28:55;98928.78;;;2.28;81.14
74552;BME280;63025;55.472;38.432;2023-04-01T03:31:22;98934.63;;;2.38;81.03
74552;BME280;63025;55.472;38.432;2023-04-01T03:33:52;98927.75;;;2.43;81.64
74552;BME280;63025;55.472;38.432;2023-04-01T03:36:18;98932.03;;;2.44;81.00
74552;BME280;63025;55.472;38.432;2023-04-01T03:38:44;98931.75;;;2.54;80.59
74552;BME280;63025;55.472;38.432;2023-04-01T03:41:16;98930.94;;;2.53;80.84
74552;BME280;63025;55.472;38.432;2023-04-01T03:43:43;98928.56;;;2.58;80.61
74552;BME280;63025;55.472;38.432;2023-04-01T03:46:09;98928.63;;;2.65;81.01
74552;BME280;63025;55.472;38.432;2023-04-01T03:48:36;98935.41;;;2.68;80.66
74552;BME280;63025;55.472;38.432;2023-04-01T03:51:07;98929.09;;;2.69;80.62
74552;BME280;63025;55.472;38.432;2023-04-01T03:53:33;98936.03;;;2.70;80.63
74552;BME280;63025;55.472;38.432;2023-04-01T03:56:08;98949.03;;;2.65;80.27
74552;BME280;63025;55.472;38.432;2023-04-01T03:58:35;98951.94;;;2.70;80.65
74552;BME280;63025;55.472;38.432;2023-04-01T04:01:03;98952.56;;;2.72;80.23
74552;BME280;63025;55.472;38.432;2023-04-01T04:03:30;98949.47;;;2.68;80.72
74552;BME280;63025;55.472;38.432;2023-04-01T04:05:57;98956.50;;;2.76;79.92
74552;BME280;63025;55.472;38.432;2023-04-01T04:08:23;98961.34;;;2.72;80.64
74552;BME280;63025;55.472;38.432;2023-04-01T04:10:55;98970.88;;;2.67;80.08
74552;BME280;63025;55.472;38.432;2023-04-01T04:13:22;98973.25;;;2.62;80.20
74552;BME280;63025;55.472;38.432;2023-04-01T04:15:55;98970.88;;;2.67;80.68
74552;BME280;63025;55.472;38.432;2023-04-01T04:18:21;98974.44;;;2.74;80.70
74552;BME280;63025;55.472;38.432;2023-04-01T04:20:47;98982.38;;;2.74;79.88
74552;BME280;63025;55.472;38.432;2023-04-01T04:23:18;98980.91;;;2.71;79.90
74552;BME280;63025;55.472;38.432;2023-04-01T04:25:57;98981.56;;;2.73;80.35
74552;BME280;63025;55.472;38.432;2023-04-01T04:28:23;98984.69;;;2.77;80.39
74552;BME280;63025;55.472;38.432;2023-04-01T04:30:50;98980.91;;;2.71;80.05
74552;BME280;63025;55.472;38.432;2023-04-01T04:33:17;98988.69;;;2.73;79.70
74552;BME280;63025;55.472;38.432;2023-04-01T04:35:43;98996.13;;;2.77;80.54
74552;BME280;63025;55.472;38.432;2023-04-01T04:38:09;98990.41;;;2.80;79.99
74552;BME280;63025;55.472;38.432;2023-04-01T04:40:38;98993.00;;;2.88;79.89
74552;BME280;63025;55.472;38.432;2023-04-01T04:43:04;98993.06;;;2.95;79.88
74552;BME280;63025;55.472;38.432;2023-04-01T04:45:30;99003.72;;;3.02;79.12
74552;BME280;63025;55.472;38.432;2023-04-01T04:47:57;98999.78;;;3.12;79.08
74552;BME280;63025;55.472;38.432;2023-04-01T04:50:24;99010.31;;;3.20;79.00
74552;BME280;63025;55.472;38.432;2023-04-01T04:52:51;99004.03;;;3.28;78.64
74552;BME280;63025;55.472;38.432;2023-04-01T04:55:17;99005.69;;;3.29;79.12
74552;BME280;63025;55.472;38.432;2023-04-01T04:57:47;99006.06;;;3.26;78.49
74552;BME280;63025;55.472;38.432;2023-04-01T05:00:13;98995.28;;;3.13;78.46
74552;BME280;63025;55.472;38.432;2023-04-01T05:02:55;99000.59;;;3.13;78.85
74552;BME280;63025;55.472;38.432;2023-04-01T05:05:20;99006.31;;;3.10;78.35
74552;BME280;63025;55.472;38.432;2023-04-01T05:07:46;99006.53;;;3.15;79.12
74552;BME280;63025;55.472;38.432;2023-04-01T05:10:12;99006.25;;;3.24;79.23
74552;BME280;63025;55.472;38.432;2023-04-01T05:12:39;99015.78;;;3.19;78.72
74552;BME280;63025;55.472;38.432;2023-04-01T05:15:08;99009.34;;;3.28;78.75
74552;BME280;63025;55.472;38.432;2023-04-01T05:17:34;99014.34;;;3.38;78.52
74552;BME280;63025;55.472;38.432;2023-04-01T05:20:18;99023.16;;;3.59;78.29
74552;BME280;63025;55.472;38.432;2023-04-01T05:22:44;99013.84;;;3.70;78.14
74552;BME280;63025;55.472;38.432;2023-04-01T05:25:10;99022.38;;;3.65;77.94
74552;BME280;63025;55.472;38.432;2023-04-01T05:27:36;99027.69;;;3.65;77.92
74552;BME280;63025;55.472;38.432;2023-04-01T05:30:02;99022.56;;;3.64;77.33
74552;BME280;63025;55.472;38.432;2023-04-01T05:32:47;99025.19;;;3.57;77.76
74552;BME280;63025;55.472;38.432;2023-04-01T05:35:13;99031.69;;;3.55;77.21
74552;BME280;63025;55.472;38.432;2023-04-01T05:37:39;99030.34;;;3.65;77.79
74552;BME280;63025;55.472;38.432;2023-04-01T05:40:06;99030.63;;;3.49;77.77
74552;BME280;63025;55.472;38.432;2023-04-01T05:42:32;99035.47;;;3.46;77.68
74552;BME280;63025;55.472;38.432;2023-04-01T05:44:58;99043.13;;;3.55;77.95
74552;BME280;63025;55.472;38.432;2023-04-01T05:47:42;99036.66;;;3.43;77.43
74552;BME280;63025;55.472;38.432;2023-04-01T05:50:09;99028.94;;;3.63;77.54
74552;BME280;63025;55.472;38.432;2023-04-01T05:52:37;99036.81;;;3.78;77.40
74552;BME280;63025;55.472;38.432;2023-04-01T05:55:03;99042.91;;;3.72;76.80
74552;BME280;63025;55.472;38.432;2023-04-01T05:57:30;99032.78;;;3.60;76.89
74552;BME280;63025;55.472;38.432;2023-04-01T05:59:56;99034.16;;;3.56;77.11
74552;BME280;63025;55.472;38.432;2023-04-01T06:02:22;99040.06;;;3.73;77.08
74552;BME280;63025;55.472;38.432;2023-04-01T06:04:49;99040.97;;;3.87;77.13
74552;BME280;63025;55.472;38.432;2023-04-01T06:07:16;99051.78;;;3.85;76.80
74552;BME280;63025;55.472;38.432;2023-04-01T06:09:43;99052.19;;;4.03;76.83
74552;BME280;63025;55.472;38.432;2023-04-01T06:12:29;99053.88;;;4.11;76.84
74552;BME280;63025;55.472;38.432;2023-04-01T06:23:01;99065.81;;;3.94;76.86
74552;BME280;63025;55.472;38.432;2023-04-01T06:31:12;99054.84;;;4.31;75.96
74552;BME280;63025;55.472;38.432;2023-04-01T06:33:56;99062.41;;;4.06;75.62
74552;BME280;63025;55.472;38.432;2023-04-01T06:37:17;99066.31;;;4.04;76.05
74552;BME280;63025;55.472;38.432;2023-04-01T06:39:35;99067.38;;;3.88;76.40
74552;BME280;63025;55.472;38.432;2023-04-01T06:42:30;99077.69;;;3.98;76.77
74552;BME280;63025;55.472;38.432;2023-04-01T06:48:11;99079.06;;;4.15;76.52
74552;BME280;63025;55.472;38.432;2023-04-01T06:56:54;99082.59;;;4.50;75.71
74552;BME280;63025;55.472;38.432;2023-04-01T06:59:33;99088.91;;;4.42;75.51
74552;BME280;63025;55.472;38.432;2023-04-01T07:04:40;99090.47;;;4.37;75.67
74552;BME280;63025;55.472;38.432;2023-04-01T07:07:34;99094.22;;;4.42;75.24
74552;BME280;63025;55.472;38.432;2023-04-01T07:10:10;99093.34;;;4.35;75.17
74552;BME280;63025;55.472;38.432;2023-04-01T07:13:04;99096.31;;;4.26;75.48
74552;BME280;63025;55.472;38.432;2023-04-01T07:15:40;99108.09;;;4.38;75.28
74552;BME280;63025;55.472;38.432;2023-04-01T07:18:15;99090.28;;;4.38;75.66
74552;BME280;63025;55.472;38.432;2023-04-01T07:20:44;99096.28;;;4.47;75.25
74552;BME280;63025;55.472;38.432;2023-04-01T07:23:38;99101.25;;;4.85;74.72
74552;BME280;63025;55.472;38.432;2023-04-01T07:26:26;99107.13;;;4.73;74.29
74552;BME280;63025;55.472;38.432;2023-04-01T07:29:12;99110.25;;;4.84;74.65
74552;BME280;63025;55.472;38.432;2023-04-01T07:32:16;99111.81;;;5.06;74.08
74552;BME280;63025;55.472;38.432;2023-04-01T07:49:04;99116.44;;;4.91;73.67
74552;BME280;63025;55.472;38.432;2023-04-01T07:54:53;99121.03;;;5.10;73.50
74552;BME280;63025;55.472;38.432;2023-04-01T07:57:43;99132.72;;;5.09;73.02
74552;BME280;63025;55.472;38.432;2023-04-01T08:00:26;99130.50;;;5.12;73.43
74552;BME280;63025;55.472;38.432;2023-04-01T08:22:39;99156.88;;;5.42;73.20
74552;BME280;63025;55.472;38.432;2023-04-01T08:25:20;99154.25;;;5.55;73.21
74552;BME280;63025;55.472;38.432;2023-04-01T08:27:56;99163.53;;;5.72;73.06
74552;BME280;63025;55.472;38.432;2023-04-01T08:30:33;99165.25;;;5.86;72.45
74552;BME280;63025;55.472;38.432;2023-04-01T08:38:19;99170.53;;;6.74;70.08
74552;BME280;63025;55.472;38.432;2023-04-01T08:41:01;99161.91;;;6.85;69.86
74552;BME280;63025;55.472;38.432;2023-04-01T08:44:17;99159.56;;;8.73;67.18
74552;BME280;63025;55.472;38.432;2023-04-01T09:29:57;99197.81;;;9.67;60.21
74552;BME280;63025;55.472;38.432;2023-04-01T09:32:52;99202.28;;;9.36;61.12
74552;BME280;63025;55.472;38.432;2023-04-01T09:35:48;99206.22;;;8.91;61.94
74552;BME280;63025;55.472;38.432;2023-04-01T09:44:23;99219.38;;;8.36;63.11
74552;BME280;63025;55.472;38.432;2023-04-01T09:58:19;99230.50;;;8.39;64.12
74552;BME280;63025;55.472;38.432;2023-04-01T10:24:41;99229.13;;;16.17;47.94
74552;BME280;63025;55.472;38.432;2023-04-01T10:33:03;99248.03;;;17.30;42.00
74552;BME280;63025;55.472;38.432;2023-04-01T10:39:37;99250.31;;;16.30;41.64
74552;BME280;63025;55.472;38.432;2023-04-01T10:55:37;99242.03;;;20.50;36.63
74552;BME280;63025;55.472;38.432;2023-04-01T11:17:07;99249.78;;;20.19;34.34
74552;BME280;63025;55.472;38.432;2023-04-01T11:25:17;99257.91;;;20.00;34.09
74552;BME280;63025;55.472;38.432;2023-04-01T11:30:56;99253.59;;;20.18;33.73
74552;BME280;63025;55.472;38.432;2023-04-01T11:39:01;99280.84;;;16.82;36.78
74552;BME280;63025;55.472;38.432;2023-04-01T11:45:00;99286.72;;;16.54;38.76
74552;BME280;63025;55.472;38.432;2023-04-01T11:56:34;99277.47;;;18.82;35.87
74552;BME280;63025;55.472;38.432;2023-04-01T12:01:56;99278.41;;;16.71;37.07
74552;BME280;63025;55.472;38.432;2023-04-01T12:05:33;99267.13;;;16.32;37.93
74552;BME280;63025;55.472;38.432;2023-04-01T12:07:57;99276.13;;;15.48;38.22
74552;BME280;63025;55.472;38.432;2023-04-01T12:13:23;99273.06;;;14.76;40.58
74552;BME280;63025;55.472;38.432;2023-04-01T12:24:34;99288.25;;;13.89;42.44
74552;BME280;63025;55.472;38.432;2023-04-01T12:27:20;99292.06;;;13.05;43.17
74552;BME280;63025;55.472;38.432;2023-04-01T12:38:22;99300.38;;;12.58;44.71
74552;BME280;63025;55.472;38.432;2023-04-01T12:51:39;99293.28;;;12.40;45.55
74552;BME280;63025;55.472;38.432;2023-04-01T13:13:28;99319.16;;;10.90;49.52
74552;BME280;63025;55.472;38.432;2023-04-01T13:32:22;99319.91;;;10.12;53.14
74552;BME280;63025;55.472;38.432;2023-04-01T13:35:03;99311.38;;;10.22;53.26
74552;BME280;63025;55.472;38.432;2023-04-01T13:41:09;99325.06;;;10.14;53.53
74552;BME280;63025;55.472;38.432;2023-04-01T13:49:07;99328.41;;;9.73;54.65
74552;BME280;63025;55.472;38.432;2023-04-01T14:02:51;99337.50;;;9.47;56.48
74552;BME280;63025;55.472;38.432;2023-04-01T14:06:06;99347.28;;;9.35;56.44
74552;BME280;63025;55.472;38.432;2023-04-01T14:49:04;99366.75;;;8.54;62.98
74552;BME280;63025;55.472;38.432;2023-04-01T14:51:40;99377.22;;;8.62;62.58
74552;BME280;63025;55.472;38.432;2023-04-01T14:54:16;99380.34;;;8.59;63.12
74552;BME280;63025;55.472;38.432;2023-04-01T14:56:50;99382.84;;;8.54;63.20
74552;BME280;63025;55.472;38.432;2023-04-01T14:59:28;99382.22;;;8.52;63.27
74552;BME280;63025;55.472;38.432;2023-04-01T15:05:15;99401.41;;;8.49;63.75
74552;BME280;63025;55.472;38.432;2023-04-01T15:10:41;99406.34;;;8.45;64.21
74552;BME280;63025;55.472;38.432;2023-04-01T15:16:27;99408.44;;;8.24;64.80
74552;BME280;63025;55.472;38.432;2023-04-01T15:21:36;99407.41;;;8.25;64.98
74552;BME280;63025;55.472;38.432;2023-04-01T15:31:59;99410.31;;;8.17;65.64
74552;BME280;63025;55.472;38.432;2023-04-01T15:34:37;99413.00;;;8.17;65.85
74552;BME280;63025;55.472;38.432;2023-04-01T15:39:51;99423.75;;;7.97;66.14
74552;BME280;63025;55.472;38.432;2023-04-01T15:47:42;99438.53;;;7.99;66.90
74552;BME280;63025;55.472;38.432;2023-04-01T15:56:28;99440.81;;;7.89;67.13
74552;BME280;63025;55.472;38.432;2023-04-01T16:05:19;99457.28;;;7.93;67.74
74552;BME280;63025;55.472;38.432;2023-04-01T16:21:54;99460.38;;;7.83;68.74
74552;BME280;63025;55.472;38.432;2023-04-01T16:27:11;99468.63;;;7.88;68.07
74552;BME280;63025;55.472;38.432;2023-04-01T16:29:43;99478.06;;;7.91;68.41
74552;BME280;63025;55.472;38.432;2023-04-01T16:32:16;99476.84;;;7.87;68.45
74552;BME280;63025;55.472;38.432;2023-04-01T16:34:58;99471.88;;;7.90;68.93
74552;BME280;63025;55.472;38.432;2023-04-01T16:37:39;99477.69;;;7.87;68.54
74552;BME280;63025;55.472;38.432;2023-04-01T16:41:00;99483.84;;;7.94;68.72
74552;BME280;63025;55.472;38.432;2023-04-01T16:43:50;99475.59;;;7.89;69.15
74552;BME280;63025;55.472;38.432;2023-04-01T16:57:03;99493.50;;;7.82;69.58
74552;BME280;63025;55.472;38.432;2023-04-01T17:02:17;99495.56;;;7.80;69.89
74552;BME280;63025;55.472;38.432;2023-04-01T17:04:53;99505.03;;;7.76;69.86
74552;BME280;63025;55.472;38.432;2023-04-01T17:07:41;99510.34;;;7.69;70.41
74552;BME280;63025;55.472;38.432;2023-04-01T17:15:44;99502.56;;;7.68;70.68
74552;BME280;63025;55.472;38.432;2023-04-01T17:24:00;99518.38;;;7.63;71.15
74552;BME280;63025;55.472;38.432;2023-04-01T17:26:50;99523.72;;;7.63;71.67
74552;BME280;63025;55.472;38.432;2023-04-01T17:32:10;99525.38;;;7.64;71.38
74552;BME280;63025;55.472;38.432;2023-04-01T17:34:45;99529.28;;;7.61;71.63
74552;BME280;63025;55.472;38.432;2023-04-01T17:45:56;99534.81;;;7.60;71.94
74552;BME280;63025;55.472;38.432;2023-04-01T17:48:47;99538.31;;;7.54;71.77
74552;BME280;63025;55.472;38.432;2023-04-01T17:51:33;99540.75;;;7.49;72.22
74552;BME280;63025;55.472;38.432;2023-04-01T17:54:14;99535.22;;;7.50;72.61
74552;BME280;63025;55.472;38.432;2023-04-01T17:56:56;99550.44;;;7.50;72.39
74552;BME280;63025;55.472;38.432;2023-04-01T17:59:58;99547.13;;;7.48;72.72
74552;BME280;63025;55.472;38.432;2023-04-01T18:08:03;99557.44;;;7.51;73.08
74552;BME280;63025;55.472;38.432;2023-04-01T18:10:46;99562.34;;;7.41;73.51
74552;BME280;63025;55.472;38.432;2023-04-01T18:16:38;99570.34;;;7.41;73.35
74552;BME280;63025;55.472;38.432;2023-04-01T18:24:43;99579.19;;;7.41;73.81
74552;BME280;63025;55.472;38.432;2023-04-01T18:30:00;99583.72;;;7.41;73.68
74552;BME280;63025;55.472;38.432;2023-04-01T18:32:44;99584.94;;;7.38;73.56
74552;BME280;63025;55.472;38.432;2023-04-01T18:35:52;99585.75;;;7.38;73.74
74552;BME280;63025;55.472;38.432;2023-04-01T18:38:34;99585.31;;;7.28;74.05
74552;BME280;63025;55.472;38.432;2023-04-01T18:41:14;99591.94;;;7.32;74.24
74552;BME280;63025;55.472;38.432;2023-04-01T18:47:11;99601.13;;;7.23;74.77
74552;BME280;63025;55.472;38.432;2023-04-01T18:49:45;99598.47;;;7.23;74.85
74552;BME280;63025;55.472;38.432;2023-04-01T18:52:27;99597.66;;;7.29;74.78
74552;BME280;63025;55.472;38.432;2023-04-01T18:58:06;99593.53;;;7.27;74.42
74552;BME280;63025;55.472;38.432;2023-04-01T19:00:41;99599.69;;;7.27;74.61
74552;BME280;63025;55.472;38.432;2023-04-01T19:03:39;99599.13;;;7.32;74.74
74552;BME280;63025;55.472;38.432;2023-04-01T19:06:20;99591.09;;;7.25;74.79
74552;BME280;63025;55.472;38.432;2023-04-01T19:08:48;99595.63;;;7.31;74.73
74552;BME280;63025;55.472;38.432;2023-04-01T19:11:36;99600.34;;;7.29;74.43
74552;BME280;63025;55.472;38.432;2023-04-01T19:17:01;99602.63;;;7.32;74.87
74552;BME280;63025;55.472;38.432;2023-04-01T19:21:56;99601.53;;;7.27;74.72
74552;BME280;63025;55.472;38.432;2023-04-01T19:27:37;99603.63;;;7.31;74.82
74552;BME280;63025;55.472;38.432;2023-04-01T19:37:50;99593.13;;;7.23;75.21
74552;BME280;63025;55.472;38.432;2023-04-01T19:40:41;99604.19;;;7.20;75.25
74552;BME280;63025;55.472;38.432;2023-04-01T19:43:19;99596.81;;;7.22;75.00
74552;BME280;63025;55.472;38.432;2023-04-01T19:46:14;99598.09;;;7.26;75.16
74552;BME280;63025;55.472;38.432;2023-04-01T20:08:32;99622.34;;;7.25;75.12
74552;BME280;63025;55.472;38.432;2023-04-01T20:19:27;99629.28;;;7.19;75.77
74552;BME280;63025;55.472;38.432;2023-04-01T20:21:56;99616.75;;;7.20;75.78
74552;BME280;63025;55.472;38.432;2023-04-01T20:24:29;99628.06;;;7.22;75.73
74552;BME280;63025;55.472;38.432;2023-04-01T20:29:54;99625.59;;;7.20;75.50
74552;BME280;63025;55.472;38.432;2023-04-01T20:32:50;99616.97;;;7.25;75.57
74552;BME280;63025;55.472;38.432;2023-04-01T20:35:30;99620.47;;;7.25;75.33
74552;BME280;63025;55.472;38.432;2023-04-01T20:40:49;99627.69;;;7.25;75.24
74552;BME280;63025;55.472;38.432;2023-04-01T20:51:31;99647.88;;;7.34;75.75
74552;BME280;63025;55.472;38.432;2023-04-01T21:00:19;99656.44;;;7.23;75.68
74552;BME280;63025;55.472;38.432;2023-04-01T21:03:36;99655.41;;;7.24;75.77
74552;BME280;63025;55.472;38.432;2023-04-01T21:06:20;99656.25;;;7.24;75.62
74552;BME280;63025;55.472;38.432;2023-04-01T21:09:06;99659.31;;;7.21;76.20
74552;BME280;63025;55.472;38.432;2023-04-01T21:20:00;99667.50;;;7.13;76.11
74552;BME280;63025;55.472;38.432;2023-04-01T21:23:15;99667.88;;;7.10;76.45
74552;BME280;63025;55.472;38.432;2023-04-01T21:33:39;99677.72;;;7.10;76.69
74552;BME280;63025;55.472;38.432;2023-04-01T21:39:38;99683.69;;;7.05;76.90
74552;BME280;63025;55.472;38.432;2023-04-01T21:51:02;99686.56;;;7.10;77.23
74552;BME280;63025;55.472;38.432;2023-04-01T22:04:46;99700.38;;;7.14;77.17
74552;BME280;63025;55.472;38.432;2023-04-01T22:07:21;99692.41;;;7.20;77.03
74552;BME280;63025;55.472;38.432;2023-04-01T22:13:03;99697.94;;;7.19;76.90
74552;BME280;63025;55.472;38.432;2023-04-01T22:16:11;99697.75;;;7.20;76.90
74552;BME280;63025;55.472;38.432;2023-04-01T22:21:44;99705.75;;;7.20;77.17
74552;BME280;63025;55.472;38.432;2023-04-01T22:30:04;99698.13;;;7.17;77.20
74552;BME280;63025;55.472;38.432;2023-04-01T22:35:17;99703.88;;;7.14;78.00
74552;BME280;63025;55.472;38.432;2023-04-01T22:42:58;99695.91;;;7.21;77.92
74552;BME280;63025;55.472;38.432;2023-04-01T22:45:38;99688.69;;;7.15;77.67
74552;BME280;63025;55.472;38.432;2023-04-01T22:48:31;99694.63;;;7.17;77.87
74552;BME280;63025;55.472;38.432;2023-04-01T22:56:19;99704.56;;;7.29;77.69
74552;BME280;63025;55.472;38.432;2023-04-01T22:59:02;99693.31;;;7.34;77.92
74552;BME280;63025;55.472;38.432;2023-04-01T23:01:34;99704.41;;;7.37;77.83
74552;BME280;63025;55.472;38.432;2023-04-01T23:04:04;99695.09;;;7.27;78.24
74552;BME280;63025;55.472;38.432;2023-04-01T23:06:46;99696.34;;;7.24;77.71
74552;BME280;63025;55.472;38.432;2023-04-01T23:09:18;99705.66;;;7.35;78.28
74552;BME280;63025;55.472;38.432;2023-04-01T23:22:20;99695.44;;;7.17;79.06
74552;BME280;63025;55.472;38.432;2023-04-01T23:24:54;99702.44;;;7.18;78.78
74552;BME280;63025;55.472;38.432;2023-04-01T23:27:30;99694.06;;;7.21;79.19
74552;BME280;63025;55.472;38.432;2023-04-01T23:30:01;99695.91;;;7.27;79.04
74552;BME280;63025;55.472;38.432;2023-04-01T23:32:27;99702.06;;;7.21;78.68
74552;BME280;63025;55.472;38.432;2023-04-01T23:34:58;99711.09;;;7.20;79.08
74552;BME280;63025;55.472;38.432;2023-04-01T23:37:26;99711.94;;;7.21;78.92
74552;BME280;63025;55.472;38.432;2023-04-01T23:39:54;99716.44;;;7.20;79.15
74552;BME280;63025;55.472;38.432;2023-04-01T23:42:37;99718.59;;;7.31;78.90
74552;BME280;63025;55.472;38.432;2023-04-01T23:45:05;99720.63;;;7.29;78.83
74552;BME280;63025;55.472;38.432;2023-04-01T23:47:38;99721.50;;;7.36;78.60
74552;BME280;63025;55.472;38.432;2023-04-01T23:52:43;99725.38;;;7.34;78.63
74552;BME280;63025;55.472;38.432;2023-04-01T23:55:26;99728.81;;;7.28;78.93
74552;BME280;63025;55.472;38.432;2023-04-01T23:58:23;99731.09;;;7.24;79.23
